Time;durP1;ratioP1;P1;durP2;ratioP2;P2;SDS_P1;SDS_P2;PMS_P1;PMS_P2;Temp;Humidity;BMP_temperature;BMP_pressure;BME280_temperature;BME280_humidity;BME280_pressure;Samples;Min_cycle;Max_cycle;Signal;HPM_P1;HPM_P2
2024/01/03 00:00:30;;;;;;;0.90;0.60;;;8.50;99.90;;;;;;5077632;28;20433;-71
2024/01/03 00:02:56;;;;;;;0.80;0.60;;;8.50;99.90;;;;;;5089105;28;20430;-71
2024/01/03 00:05:23;;;;;;;0.90;0.70;;;8.50;99.90;;;;;;5074695;28;20431;-71
2024/01/03 00:07:50;;;;;;;0.67;0.67;;;8.50;99.90;;;;;;5106139;22;20488;-70
2024/01/03 00:10:47;;;;;;;2.70;1.10;;;8.50;99.90;;;;;;5072304;28;20484;-71
2024/01/03 00:13:31;;;;;;;0.70;0.60;;;8.40;99.90;;;;;;5072979;28;20417;-71
2024/01/03 00:15:59;;;;;;;0.60;0.60;;;8.40;99.90;;;;;;5072722;28;20415;-71
2024/01/03 00:18:39;;;;;;;1.53;0.83;;;8.30;99.90;;;;;;5052587;28;20775;-70
2024/01/03 00:21:09;;;;;;;1.00;0.80;;;8.30;99.90;;;;;;5052776;28;20416;-69
2024/01/03 00:23:38;;;;;;;1.50;0.80;;;8.40;99.90;;;;;;5052773;28;20416;-70
2024/01/03 00:26:07;;;;;;;1.07;0.80;;;8.40;99.90;;;;;;5052690;28;20439;-70
2024/01/03 00:28:33;;;;;;;0.90;0.77;;;8.40;99.90;;;;;;5035009;28;20428;-69
2024/01/03 00:30:59;;;;;;;1.03;0.93;;;8.40;99.90;;;;;;5052490;28;20460;-70
2024/01/03 00:33:25;;;;;;;2.20;1.40;;;8.40;99.90;;;;;;5049379;28;20793;-70
2024/01/03 00:35:51;;;;;;;1.47;0.80;;;8.40;99.90;;;;;;5032435;28;20421;-69
2024/01/03 00:38:17;;;;;;;4.40;1.33;;;8.40;99.90;;;;;;5032284;28;20159;-70
2024/01/03 00:40:55;;;;;;;3.73;1.30;;;8.50;99.90;;;;;;5032617;28;20932;-69
2024/01/03 00:43:20;;;;;;;0.93;0.77;;;8.60;99.90;;;;;;5032490;28;20257;-70
2024/01/03 00:45:48;;;;;;;3.07;1.10;;;8.60;99.90;;;;;;5032453;28;20949;-69
2024/01/03 00:48:14;;;;;;;3.70;1.27;;;8.70;99.90;;;;;;5032164;28;20178;-70
2024/01/03 00:50:39;;;;;;;1.67;1.00;;;8.70;99.90;;;;;;5032400;28;20453;-70
2024/01/03 00:53:05;;;;;;;1.00;0.80;;;8.70;99.90;;;;;;5032328;28;20424;-70
2024/01/03 00:55:31;;;;;;;1.43;0.90;;;8.80;99.90;;;;;;5032520;28;20174;-68
2024/01/03 00:57:56;;;;;;;1.57;0.70;;;8.90;99.90;;;;;;5031932;28;20190;-68
2024/01/03 01:00:22;;;;;;;1.50;1.30;;;8.80;99.90;;;;;;5032362;28;20220;-69
2024/01/03 01:02:48;;;;;;;2.57;1.10;;;8.80;99.90;;;;;;5014643;28;20540;-68
2024/01/03 01:05:14;;;;;;;2.30;1.10;;;8.70;99.90;;;;;;5014504;28;20185;-68
2024/01/03 01:07:39;;;;;;;0.87;0.83;;;8.70;99.90;;;;;;5035871;28;20219;-68
2024/01/03 01:10:05;;;;;;;1.63;1.20;;;8.60;99.90;;;;;;5052015;28;20204;-69
2024/01/03 01:12:31;;;;;;;1.10;0.90;;;8.60;99.90;;;;;;5052149;28;20201;-68
2024/01/03 01:14:59;;;;;;;2.73;1.10;;;8.50;99.90;;;;;;5052049;28;20913;-68
2024/01/03 01:17:25;;;;;;;1.80;0.60;;;8.40;99.90;;;;;;5051726;28;20239;-68
2024/01/03 01:19:51;;;;;;;1.00;0.73;;;8.40;99.90;;;;;;5051943;28;20418;-69
2024/01/03 01:22:16;;;;;;;2.20;1.03;;;8.30;99.90;;;;;;5051908;28;20424;-68
2024/01/03 01:24:42;;;;;;;2.20;1.00;;;8.30;99.90;;;;;;5051913;28;20531;-70
2024/01/03 01:27:08;;;;;;;4.73;1.00;;;8.20;99.90;;;;;;5051602;28;20209;-69
2024/01/03 01:29:33;;;;;;;2.63;1.33;;;8.20;99.90;;;;;;5051970;28;20158;-69
2024/01/03 01:31:59;;;;;;;1.43;1.00;;;8.20;99.90;;;;;;5051728;28;20212;-69
2024/01/03 01:34:25;;;;;;;2.00;1.53;;;8.20;99.90;;;;;;5051815;28;20732;-69
2024/01/03 01:36:50;;;;;;;2.00;1.23;;;8.20;99.90;;;;;;5051373;28;20608;-71
2024/01/03 01:39:15;;;;;;;2.30;0.90;;;8.20;99.90;;;;;;5051849;28;20248;-69
2024/01/03 01:41:41;;;;;;;2.00;0.93;;;8.20;99.90;;;;;;5051740;28;20208;-68
2024/01/03 01:44:07;;;;;;;2.90;1.10;;;8.20;99.90;;;;;;5051993;28;20174;-68
2024/01/03 01:46:34;;;;;;;1.70;1.10;;;8.30;99.90;;;;;;5051380;28;20331;-70
2024/01/03 01:49:00;;;;;;;3.77;1.57;;;8.30;99.90;;;;;;5051633;28;20166;-68
2024/01/03 01:51:26;;;;;;;1.37;1.00;;;8.40;99.90;;;;;;5051600;28;20550;-68
2024/01/03 01:53:52;;;;;;;2.23;1.07;;;8.40;99.90;;;;;;5051737;28;20355;-69
2024/01/03 01:56:19;;;;;;;1.07;0.90;;;8.40;99.90;;;;;;5051502;28;20488;-69
2024/01/03 01:58:46;;;;;;;1.23;0.90;;;8.50;99.90;;;;;;5055097;28;20412;-69
2024/01/03 02:01:13;;;;;;;0.90;0.90;;;8.50;99.90;;;;;;5055616;28;20462;-69
2024/01/03 02:03:38;;;;;;;1.27;1.17;;;8.50;99.90;;;;;;5055421;28;20416;-69
2024/01/03 02:06:07;;;;;;;1.20;0.67;;;8.50;99.90;;;;;;5055012;28;20458;-69
2024/01/03 02:08:33;;;;;;;0.80;0.80;;;8.50;99.90;;;;;;5042262;28;20209;-69
2024/01/03 02:11:01;;;;;;;0.97;0.83;;;8.40;99.90;;;;;;5034075;28;20484;-69
2024/01/03 02:13:26;;;;;;;1.10;0.70;;;8.30;99.90;;;;;;5034095;28;20174;-70
2024/01/03 02:15:52;;;;;;;1.77;0.80;;;8.20;99.90;;;;;;5034274;28;20451;-70
2024/01/03 02:18:19;;;;;;;0.77;0.70;;;8.10;99.90;;;;;;5016044;28;20170;-69
2024/01/03 02:20:46;;;;;;;1.20;0.80;;;8.00;99.90;;;;;;5033972;28;20437;-70
2024/01/03 02:23:12;;;;;;;0.60;0.60;;;8.00;99.90;;;;;;5033836;28;20519;-69
2024/01/03 02:25:37;;;;;;;0.80;0.80;;;7.90;99.90;;;;;;5033870;28;20495;-70
2024/01/03 02:28:09;;;;;;;1.03;0.60;;;7.90;99.90;;;;;;5033568;28;20202;-69
2024/01/03 02:30:34;;;;;;;0.60;0.60;;;7.90;99.90;;;;;;5033839;28;20555;-69
2024/01/03 02:33:00;;;;;;;0.57;0.50;;;8.00;99.90;;;;;;5033699;28;20414;-69
2024/01/03 02:35:25;;;;;;;1.17;0.50;;;8.00;99.90;;;;;;5033660;28;20195;-69
2024/01/03 02:37:50;;;;;;;0.60;0.60;;;7.90;99.90;;;;;;5033421;28;20606;-69
2024/01/03 02:40:16;;;;;;;2.50;0.60;;;7.90;99.90;;;;;;5033680;28;20175;-69
2024/01/03 02:42:41;;;;;;;0.67;0.50;;;7.90;99.90;;;;;;5033709;28;20213;-69
2024/01/03 02:45:07;;;;;;;0.50;0.40;;;7.90;99.90;;;;;;5033640;28;20178;-69
2024/01/03 02:47:33;;;;;;;0.90;0.60;;;7.90;99.90;;;;;;5033247;28;20699;-69
2024/01/03 02:49:58;;;;;;;0.80;0.67;;;8.00;99.90;;;;;;5033475;28;20540;-69
2024/01/03 02:52:25;;;;;;;1.37;0.57;;;7.90;99.90;;;;;;5033485;28;20174;-69
2024/01/03 02:54:51;;;;;;;1.83;0.63;;;7.90;99.90;;;;;;5033438;28;20177;-69
2024/01/03 02:57:16;;;;;;;0.97;0.60;;;7.90;99.90;;;;;;5033045;28;20511;-69
2024/01/03 02:59:42;;;;;;;0.90;0.60;;;7.90;99.90;;;;;;5033404;28;20217;-68
2024/01/03 03:02:07;;;;;;;1.33;0.60;;;7.90;99.90;;;;;;5033349;28;20511;-69
2024/01/03 03:04:33;;;;;;;1.37;0.70;;;7.90;99.90;;;;;;5033366;28;20640;-69
2024/01/03 03:06:58;;;;;;;1.07;0.63;;;7.80;99.90;;;;;;4995356;28;1090196;-69
2024/01/03 03:09:24;;;;;;;0.67;0.67;;;7.80;99.90;;;;;;5051530;28;20185;-69
2024/01/03 03:11:49;;;;;;;1.43;0.80;;;7.80;99.90;;;;;;5054110;28;20246;-69
2024/01/03 03:14:15;;;;;;;2.10;0.83;;;7.80;99.90;;;;;;5054128;28;20184;-68
2024/01/03 03:16:41;;;;;;;0.77;0.73;;;7.80;99.90;;;;;;5053739;28;20192;-68
2024/01/03 03:19:06;;;;;;;1.47;0.80;;;7.80;99.90;;;;;;5054045;28;20202;-69
2024/01/03 03:21:32;;;;;;;0.80;0.80;;;7.80;99.90;;;;;;5054029;28;20541;-69
2024/01/03 03:23:57;;;;;;;0.60;0.57;;;7.80;99.90;;;;;;5054096;28;20605;-69
2024/01/03 03:26:23;;;;;;;0.80;0.60;;;7.70;99.90;;;;;;5053715;28;20193;-68
2024/01/03 03:28:48;;;;;;;1.53;0.80;;;7.80;99.90;;;;;;5053836;28;20197;-69
2024/01/03 03:31:14;;;;;;;1.27;0.93;;;7.80;99.90;;;;;;5035855;28;20197;-69
2024/01/03 03:33:40;;;;;;;1.50;0.70;;;7.80;99.90;;;;;;5053829;28;20170;-69
2024/01/03 03:36:14;;;;;;;0.80;0.80;;;7.80;99.90;;;;;;5053704;28;20186;-69
2024/01/03 03:38:40;;;;;;;1.13;0.80;;;7.80;99.90;;;;;;5053669;28;20154;-69
2024/01/03 03:41:12;;;;;;;1.03;0.97;;;7.80;99.90;;;;;;5053708;28;20420;-70
2024/01/03 03:43:39;;;;;;;1.53;1.30;;;7.70;99.90;;;;;;5053573;28;20495;-69
2024/01/03 03:46:09;;;;;;;1.70;1.00;;;7.70;99.90;;;;;;5053310;28;20435;-69
2024/01/03 03:48:34;;;;;;;0.80;0.80;;;7.70;99.90;;;;;;5053286;28;20420;-69
2024/01/03 03:51:01;;;;;;;1.10;1.00;;;7.60;99.90;;;;;;5053347;28;20456;-69
2024/01/03 03:53:26;;;;;;;1.27;1.00;;;7.60;99.90;;;;;;5053455;28;20235;-68
2024/01/03 03:55:52;;;;;;;1.40;0.97;;;7.50;99.90;;;;;;5053234;28;20420;-69
2024/01/03 03:58:17;;;;;;;1.67;1.10;;;7.50;99.90;;;;;;5053024;28;20200;-70
2024/01/03 04:00:43;;;;;;;1.53;1.23;;;7.50;99.90;;;;;;5053233;28;20170;-69
2024/01/03 04:03:08;;;;;;;1.70;1.30;;;7.50;99.90;;;;;;5053262;28;20191;-68
2024/01/03 04:05:35;;;;;;;3.90;1.07;;;7.50;99.90;;;;;;5053172;28;20177;-69
2024/01/03 04:08:01;;;;;;;2.83;1.03;;;7.50;99.90;;;;;;5045358;28;20210;-68
2024/01/03 04:10:27;;;;;;;2.13;1.00;;;7.50;99.90;;;;;;5033072;28;20499;-68
2024/01/03 04:12:52;;;;;;;1.37;0.70;;;7.40;99.90;;;;;;5015489;28;20174;-69
2024/01/03 04:15:19;;;;;;;1.03;0.93;;;7.40;99.90;;;;;;5033083;28;20696;-68
2024/01/03 04:17:44;;;;;;;3.73;1.67;;;7.40;99.90;;;;;;5032713;28;20256;-69
2024/01/03 04:20:10;;;;;;;2.33;1.00;;;7.40;99.90;;;;;;5032553;28;20421;-69
2024/01/03 04:22:37;;;;;;;1.90;1.27;;;7.40;99.90;;;;;;5032894;28;20524;-69
2024/01/03 04:25:02;;;;;;;1.77;1.03;;;7.40;99.90;;;;;;5032960;28;20178;-70
2024/01/03 04:27:28;;;;;;;1.20;1.10;;;7.40;99.90;;;;;;5032616;28;20437;-70
2024/01/03 04:29:53;;;;;;;1.67;1.10;;;7.40;99.90;;;;;;5032615;28;20206;-70
2024/01/03 04:32:19;;;;;;;1.53;0.90;;;7.40;99.90;;;;;;5033058;28;20167;-68
2024/01/03 04:34:44;;;;;;;1.83;1.10;;;7.40;99.90;;;;;;5032842;28;20171;-69
2024/01/03 04:37:10;;;;;;;0.97;0.87;;;7.30;99.90;;;;;;5032405;28;20672;-69
2024/01/03 04:39:35;;;;;;;1.70;0.90;;;7.30;99.90;;;;;;5032638;28;20261;-69
2024/01/03 04:42:01;;;;;;;2.70;0.90;;;7.30;99.90;;;;;;5032641;28;20174;-69
2024/01/03 04:44:26;;;;;;;5.20;1.33;;;7.30;99.90;;;;;;5032592;28;20177;-69
2024/01/03 04:46:52;;;;;;;3.67;1.53;;;7.30;99.90;;;;;;5032181;28;20308;-69
2024/01/03 04:49:17;;;;;;;2.30;1.20;;;7.30;99.90;;;;;;5032473;28;20174;-69
2024/01/03 04:51:43;;;;;;;2.20;0.90;;;7.30;99.90;;;;;;5032422;28;20206;-69
2024/01/03 04:54:08;;;;;;;2.67;0.80;;;7.30;99.90;;;;;;5032439;28;20253;-69
2024/01/03 04:56:35;;;;;;;1.37;1.10;;;7.30;99.90;;;;;;5032161;28;20579;-68
2024/01/03 04:59:03;;;;;;;2.33;0.93;;;7.30;99.90;;;;;;5032283;28;20595;-69
2024/01/03 05:01:28;;;;;;;3.13;0.97;;;7.30;99.90;;;;;;5032315;28;20511;-68
2024/01/03 05:03:54;;;;;;;2.73;0.93;;;7.30;99.90;;;;;;5032196;28;20857;-69
2024/01/03 05:06:19;;;;;;;1.77;1.60;;;7.30;99.90;;;;;;5031884;28;20283;-69
2024/01/03 05:08:45;;;;;;;2.33;1.20;;;7.30;99.90;;;;;;5045314;28;20643;-69
2024/01/03 05:11:10;;;;;;;3.43;1.30;;;7.30;99.90;;;;;;5052126;28;20284;-68
2024/01/03 05:13:36;;;;;;;1.63;1.20;;;7.40;99.90;;;;;;5052019;28;20223;-69
2024/01/03 05:16:02;;;;;;;3.63;1.10;;;7.40;99.90;;;;;;5051927;28;20248;-68
2024/01/03 05:18:27;;;;;;;1.93;1.20;;;7.40;99.90;;;;;;5051766;28;20161;-69
2024/01/03 05:20:53;;;;;;;2.53;0.90;;;7.50;99.90;;;;;;5051908;28;20174;-68
2024/01/03 05:23:19;;;;;;;1.80;1.23;;;7.60;99.90;;;;;;5051885;28;20174;-69
2024/01/03 05:25:44;;;;;;;3.60;1.30;;;7.60;99.90;;;;;;5051877;28;20272;-68
2024/01/03 05:28:10;;;;;;;2.30;1.00;;;7.70;99.90;;;;;;5051635;28;20169;-68
2024/01/03 05:30:35;;;;;;;4.67;1.30;;;7.90;99.90;;;;;;5051808;28;20204;-69
2024/01/03 05:33:01;;;;;;;3.53;1.63;;;8.00;99.90;;;;;;5054235;28;20181;-69
2024/01/03 05:35:26;;;;;;;3.33;1.53;;;8.10;99.90;;;;;;5056062;28;20235;-69
2024/01/03 05:37:52;;;;;;;4.30;1.63;;;8.10;99.90;;;;;;5055620;28;20272;-68
2024/01/03 05:40:20;;;;;;;6.93;2.43;;;8.10;99.90;;;;;;5055967;28;20272;-69
2024/01/03 05:42:46;;;;;;;2.83;0.90;;;8.10;99.90;;;;;;5055878;28;20703;-68
2024/01/03 05:45:11;;;;;;;2.10;0.97;;;8.10;99.90;;;;;;5055875;28;20424;-69
2024/01/03 05:47:37;;;;;;;3.97;1.20;;;8.20;99.90;;;;;;5055394;28;20193;-69
2024/01/03 05:50:03;;;;;;;2.00;0.87;;;8.20;99.90;;;;;;5055964;28;20579;-68
2024/01/03 05:52:28;;;;;;;3.93;1.20;;;8.20;99.90;;;;;;5055710;28;20658;-68
2024/01/03 05:54:54;;;;;;;2.40;1.57;;;8.20;99.90;;;;;;5055661;28;20622;-69
2024/01/03 05:57:20;;;;;;;2.73;0.93;;;8.20;99.90;;;;;;5055233;28;20193;-69
2024/01/03 05:59:46;;;;;;;1.90;1.10;;;8.20;99.90;;;;;;5055568;28;20435;-70
2024/01/03 06:02:11;;;;;;;2.87;1.10;;;8.20;99.90;;;;;;5055490;28;20177;-69
2024/01/03 06:04:37;;;;;;;4.90;1.50;;;8.20;99.90;;;;;;5055479;28;20708;-69
2024/01/03 06:07:03;;;;;;;4.33;1.50;;;8.10;99.90;;;;;;5070443;22;20596;-69
2024/01/03 06:09:28;;;;;;;3.97;1.20;;;8.00;99.90;;;;;;5064419;28;20601;-68
2024/01/03 06:11:54;;;;;;;2.90;1.20;;;8.00;99.90;;;;;;5055445;28;20263;-69
2024/01/03 06:14:19;;;;;;;2.63;1.50;;;8.00;99.90;;;;;;5055330;28;20170;-69
2024/01/03 06:16:45;;;;;;;2.80;1.17;;;8.00;99.90;;;;;;5054830;28;20189;-69
2024/01/03 06:19:10;;;;;;;5.13;1.13;;;8.10;99.90;;;;;;5055331;28;20181;-69
2024/01/03 06:21:36;;;;;;;2.30;1.00;;;8.10;99.90;;;;;;5055207;28;20173;-69
2024/01/03 06:24:02;;;;;;;3.73;1.30;;;8.10;99.90;;;;;;5055081;28;20308;-69
2024/01/03 06:26:30;;;;;;;5.70;1.37;;;8.00;99.90;;;;;;5054695;28;20243;-69
2024/01/03 06:28:56;;;;;;;3.17;1.03;;;7.90;99.90;;;;;;5055075;28;20198;-69
2024/01/03 06:31:22;;;;;;;3.43;1.10;;;7.90;99.90;;;;;;5054837;28;20979;-69
2024/01/03 06:33:48;;;;;;;5.03;2.03;;;7.80;99.90;;;;;;5054940;28;20416;-69
2024/01/03 06:36:14;;;;;;;4.97;1.40;;;7.70;99.90;;;;;;5054640;28;20189;-68
2024/01/03 06:38:39;;;;;;;2.40;0.90;;;7.60;99.90;;;;;;5054685;28;20447;-69
2024/01/03 06:41:07;;;;;;;3.03;1.30;;;7.70;99.90;;;;;;5054759;28;20568;-68
2024/01/03 06:43:33;;;;;;;2.43;1.27;;;7.70;99.90;;;;;;5054486;28;20696;-69
2024/01/03 06:45:58;;;;;;;2.77;1.30;;;7.60;99.90;;;;;;5054485;28;20447;-69
2024/01/03 06:48:24;;;;;;;1.20;0.90;;;7.60;99.90;;;;;;5054307;28;20684;-69
2024/01/03 06:50:50;;;;;;;3.90;1.47;;;7.60;99.90;;;;;;5054538;28;20267;-68
2024/01/03 06:53:16;;;;;;;3.83;1.30;;;7.60;99.90;;;;;;5054506;28;20428;-68
2024/01/03 06:55:41;;;;;;;4.43;1.10;;;7.60;99.90;;;;;;5054465;28;20173;-68
2024/01/03 06:58:07;;;;;;;3.17;1.30;;;7.60;99.90;;;;;;5054125;28;20190;-68
2024/01/03 07:00:32;;;;;;;4.20;1.03;;;7.70;99.90;;;;;;5054341;28;20174;-68
2024/01/03 07:02:58;;;;;;;3.50;1.43;;;7.70;99.90;;;;;;5054395;28;20177;-68
2024/01/03 07:05:23;;;;;;;3.50;1.10;;;7.80;99.90;;;;;;5054391;28;20653;-68
2024/01/03 07:07:49;;;;;;;7.53;0.87;;;7.90;99.90;;;;;;5053752;28;20209;-68
2024/01/03 07:10:14;;;;;;;1.67;0.93;;;8.10;99.90;;;;;;5054271;28;20201;-68
2024/01/03 07:12:40;;;;;;;2.30;1.13;;;8.10;99.90;;;;;;5054218;28;20205;-68
2024/01/03 07:15:06;;;;;;;2.70;1.07;;;8.20;99.90;;;;;;5054022;28;20173;-69
2024/01/03 07:17:32;;;;;;;3.57;0.90;;;8.20;99.90;;;;;;5053707;28;20200;-68
2024/01/03 07:19:58;;;;;;;1.90;1.17;;;8.40;99.90;;;;;;5054023;28;20416;-69
2024/01/03 07:22:23;;;;;;;5.17;1.17;;;8.50;99.90;;;;;;5053952;28;20452;-67
2024/01/03 07:24:49;;;;;;;1.20;0.97;;;8.50;99.90;;;;;;5053952;28;20209;-68
2024/01/03 07:27:15;;;;;;;1.80;0.97;;;8.60;99.90;;;;;;5053645;28;20219;-68
2024/01/03 07:29:41;;;;;;;3.23;1.70;;;8.60;99.90;;;;;;5053928;28;20586;-68
2024/01/03 07:32:07;;;;;;;3.27;1.23;;;8.60;99.90;;;;;;5053830;28;20291;-68
2024/01/03 07:34:33;;;;;;;3.60;1.40;;;8.50;99.90;;;;;;5053837;28;20420;-68
2024/01/03 07:36:58;;;;;;;2.00;1.17;;;8.50;99.90;;;;;;5053447;28;20443;-64
2024/01/03 07:39:24;;;;;;;1.40;1.20;;;8.70;99.90;;;;;;5053694;28;20412;-64
2024/01/03 07:41:51;;;;;;;1.43;0.90;;;8.90;99.90;;;;;;5053637;28;20173;-71
2024/01/03 07:44:16;;;;;;;1.50;1.40;;;8.90;99.90;;;;;;5051585;28;20248;-67
2024/01/03 07:46:42;;;;;;;2.60;1.20;;;8.90;99.90;;;;;;5057369;28;20526;-66
2024/01/03 07:49:07;;;;;;;1.03;0.73;;;8.80;99.90;;;;;;5069949;28;20177;-66
2024/01/03 07:51:38;;;;;;;2.17;1.30;;;8.70;99.90;;;;;;5060288;28;20699;-67
2024/01/03 07:54:07;;;;;;;2.53;1.17;;;8.70;99.90;;;;;;5064483;28;20173;-66
2024/01/03 07:56:32;;;;;;;4.20;1.30;;;8.60;99.90;;;;;;5052052;28;20803;-66
2024/01/03 07:58:58;;;;;;;3.27;0.93;;;8.60;99.90;;;;;;5066519;28;20427;-66
2024/01/03 08:01:23;;;;;;;1.93;1.67;;;8.70;99.90;;;;;;5072634;28;20196;-67
2024/01/03 08:03:49;;;;;;;1.60;1.03;;;8.80;99.90;;;;;;5073093;28;20543;-66
2024/01/03 08:06:20;;;;;;;2.17;1.20;;;8.90;99.90;;;;;;5069874;28;20189;-66
2024/01/03 08:08:46;;;;;;;1.43;0.73;;;9.30;99.90;;;;;;5052858;28;20173;-67
2024/01/03 08:11:12;;;;;;;3.10;1.30;;;9.80;99.90;;;;;;5052952;28;20447;-67
2024/01/03 08:13:37;;;;;;;2.67;1.20;;;10.30;99.90;;;;;;5053022;28;20184;-66
2024/01/03 08:16:06;;;;;;;3.40;2.47;;;10.50;99.90;;;;;;5057375;28;20583;-66
2024/01/03 08:18:32;;;;;;;1.57;1.07;;;10.80;99.90;;;;;;5060668;28;20174;-66
2024/01/03 08:20:57;;;;;;;1.70;0.90;;;11.10;99.90;;;;;;5067824;28;20489;-66
2024/01/03 08:23:23;;;;;;;2.87;1.20;;;11.50;99.90;;;;;;5052659;28;20547;-66
2024/01/03 08:25:49;;;;;;;3.53;1.17;;;11.90;99.90;;;;;;5062443;28;20183;-66
2024/01/03 08:28:14;;;;;;;6.23;1.17;;;11.70;99.90;;;;;;5072563;28;20287;-66
2024/01/03 08:30:40;;;;;;;1.73;0.90;;;11.20;99.90;;;;;;5072569;28;20296;-66
2024/01/03 08:33:06;;;;;;;2.70;1.17;;;10.80;99.90;;;;;;5072475;28;20184;-66
2024/01/03 08:35:31;;;;;;;3.47;1.33;;;10.50;99.90;;;;;;5072649;28;20248;-66
2024/01/03 08:37:57;;;;;;;6.13;1.77;;;10.40;99.90;;;;;;5072158;28;20196;-66
2024/01/03 08:40:22;;;;;;;2.30;1.50;;;10.30;99.90;;;;;;5072414;28;20188;-66
2024/01/03 08:42:48;;;;;;;1.97;1.10;;;10.20;99.90;;;;;;5072477;28;20256;-66
2024/01/03 08:45:13;;;;;;;1.03;0.93;;;9.90;99.90;;;;;;5072553;28;20744;-66
2024/01/03 08:47:39;;;;;;;4.10;2.50;;;9.70;99.90;;;;;;5072089;28;20197;-66
2024/01/03 08:50:05;;;;;;;1.70;1.00;;;9.50;99.90;;;;;;5072334;28;20201;-66
2024/01/03 08:52:30;;;;;;;2.10;1.00;;;9.40;99.90;;;;;;5072275;28;20184;-66
2024/01/03 08:54:56;;;;;;;2.50;1.10;;;9.30;99.90;;;;;;5072265;28;20638;-66
2024/01/03 08:57:22;;;;;;;4.00;1.30;;;9.30;99.90;;;;;;5071889;28;20180;-66
2024/01/03 08:59:47;;;;;;;5.87;1.57;;;9.20;99.90;;;;;;5072261;28;20230;-66
2024/01/03 09:02:13;;;;;;;3.03;1.30;;;9.10;99.90;;;;;;5072258;28;20701;-66
2024/01/03 09:04:40;;;;;;;2.03;1.00;;;9.10;99.90;;;;;;5072226;28;20184;-66
2024/01/03 09:07:06;;;;;;;4.20;1.87;;;9.10;99.90;;;;;;5071633;28;20236;-66
2024/01/03 09:09:31;;;;;;;2.70;1.20;;;9.10;99.90;;;;;;5072062;28;21150;-66
2024/01/03 09:11:57;;;;;;;2.30;0.90;;;9.20;99.90;;;;;;5072043;28;20201;-66
2024/01/03 09:14:22;;;;;;;1.10;1.00;;;10.00;99.90;;;;;;5072148;28;20176;-66
2024/01/03 09:16:48;;;;;;;2.27;0.90;;;11.20;99.90;;;;;;5071716;28;20196;-66
2024/01/03 09:19:13;;;;;;;2.43;1.17;;;12.20;99.90;;;;;;5072031;28;20184;-66
2024/01/03 09:21:45;;;;;;;2.17;1.07;;;12.70;99.90;;;;;;5072047;28;20196;-66
2024/01/03 09:24:11;;;;;;;1.77;0.80;;;12.80;99.90;;;;;;5071843;28;20205;-66
2024/01/03 09:26:37;;;;;;;1.97;1.13;;;12.10;99.90;;;;;;5071658;28;20789;-66
2024/01/03 09:29:02;;;;;;;3.87;1.00;;;11.60;99.90;;;;;;5071916;28;20183;-66
2024/01/03 09:31:28;;;;;;;3.50;1.00;;;11.50;99.90;;;;;;5071805;28;20204;-66
2024/01/03 09:33:54;;;;;;;2.47;1.07;;;11.90;99.90;;;;;;5071889;28;20230;-66
2024/01/03 09:36:20;;;;;;;0.90;0.80;;;12.30;99.90;;;;;;5066594;28;20165;-66
2024/01/03 09:38:47;;;;;;;1.93;0.87;;;12.30;99.90;;;;;;5071080;28;20177;-66
2024/01/03 09:41:13;;;;;;;1.20;0.83;;;11.90;99.90;;;;;;5071709;28;20480;-66
2024/01/03 09:43:42;;;;;;;2.10;0.70;;;11.40;99.90;;;;;;5071074;28;20435;-66
2024/01/03 09:46:10;;;;;;;1.60;0.73;;;11.00;99.90;;;;;;5071484;28;20514;-66
2024/01/03 09:48:40;;;;;;;2.10;1.03;;;10.70;99.90;;;;;;5070335;28;20439;-66
2024/01/03 09:51:05;;;;;;;1.67;1.00;;;10.40;99.90;;;;;;5071249;28;20461;-66
2024/01/03 09:53:31;;;;;;;1.80;1.67;;;10.30;99.90;;;;;;5051161;28;20431;-65
2024/01/03 09:55:58;;;;;;;2.93;1.20;;;10.20;99.90;;;;;;5058218;28;20204;-66
2024/01/03 09:58:24;;;;;;;1.90;1.10;;;10.10;99.90;;;;;;5069755;28;20534;-66
2024/01/03 10:00:50;;;;;;;1.27;1.17;;;10.10;99.90;;;;;;5071487;28;20419;-67
2024/01/03 10:03:16;;;;;;;1.50;0.83;;;10.20;99.90;;;;;;5071442;28;20419;-66
2024/01/03 10:05:43;;;;;;;1.17;1.07;;;10.10;99.90;;;;;;5071438;28;20419;-67
2024/01/03 10:08:17;;;;;;;1.97;1.83;;;10.10;99.90;;;;;;5070966;28;20459;-66
2024/01/03 10:10:45;;;;;;;2.33;0.87;;;10.00;99.90;;;;;;5071364;28;20813;-67
2024/01/03 10:13:24;;;;;;;2.67;1.40;;;9.80;99.90;;;;;;5053622;28;20530;-67
2024/01/03 10:15:49;;;;;;;3.67;1.20;;;9.60;99.90;;;;;;5053545;28;20427;-67
2024/01/03 10:18:16;;;;;;;1.77;0.80;;;9.40;99.90;;;;;;5072023;28;20517;-66
2024/01/03 10:20:42;;;;;;;1.17;0.93;;;9.30;99.90;;;;;;5075267;28;20181;-67
2024/01/03 10:23:12;;;;;;;1.00;0.87;;;9.30;99.90;;;;;;5075058;28;20954;-67
2024/01/03 10:25:40;;;;;;;3.70;0.90;;;9.30;99.90;;;;;;5074885;28;20419;-67
2024/01/03 10:28:07;;;;;;;3.77;1.40;;;9.20;99.90;;;;;;5074675;28;20431;-67
2024/01/03 10:30:33;;;;;;;2.00;1.30;;;9.20;99.90;;;;;;5068668;28;20448;-67
2024/01/03 10:33:03;;;;;;;0.93;0.80;;;9.30;99.90;;;;;;5054749;28;20419;-67
2024/01/03 10:35:30;;;;;;;5.33;1.27;;;9.30;99.90;;;;;;5054736;28;20415;-67
2024/01/03 10:37:57;;;;;;;4.70;1.00;;;9.30;99.90;;;;;;5036604;28;20482;-67
2024/01/03 10:40:25;;;;;;;6.23;1.60;;;9.30;99.90;;;;;;5054720;28;20428;-67
2024/01/03 10:42:51;;;;;;;1.70;0.67;;;9.30;99.90;;;;;;5054705;28;20525;-67
2024/01/03 10:45:18;;;;;;;2.20;1.10;;;9.40;99.90;;;;;;5054546;28;20434;-67
2024/01/03 10:47:43;;;;;;;3.30;1.20;;;9.50;99.90;;;;;;5054245;28;20443;-67
2024/01/03 10:50:10;;;;;;;1.17;1.07;;;9.60;99.90;;;;;;5054399;28;20506;-67
2024/01/03 10:52:39;;;;;;;7.70;1.20;;;9.80;99.90;;;;;;5054539;28;20182;-67
2024/01/03 10:55:07;;;;;;;2.43;1.00;;;10.20;99.90;;;;;;5054430;28;20426;-67
2024/01/03 10:57:35;;;;;;;4.03;1.03;;;10.20;99.90;;;;;;5054024;28;20431;-67
2024/01/03 11:00:15;;;;;;;2.10;0.83;;;10.20;99.90;;;;;;5054179;28;20424;-67
2024/01/03 11:02:54;;;;;;;1.27;1.10;;;10.60;99.90;;;;;;5054162;28;20416;-67
2024/01/03 11:05:32;;;;;;;1.87;1.53;;;11.00;99.90;;;;;;5054281;28;20498;-67
2024/01/03 11:08:04;;;;;;;2.07;1.00;;;10.90;99.90;;;;;;5035722;28;20463;-67
2024/01/03 11:10:53;;;;;;;1.63;1.03;;;10.70;99.90;;;;;;5053943;28;20470;-67
2024/01/03 11:13:32;;;;;;;3.13;1.20;;;10.70;99.90;;;;;;5054138;28;20416;-67
2024/01/03 11:16:04;;;;;;;1.43;0.70;;;10.80;99.90;;;;;;5054009;28;20439;-67
2024/01/03 11:18:42;;;;;;;1.07;0.90;;;10.80;99.90;;;;;;5053645;28;20921;-67
2024/01/03 11:21:25;;;;;;;0.80;0.70;;;10.70;99.90;;;;;;5054004;28;20419;-67
2024/01/03 11:23:50;;;;;;;2.43;0.87;;;10.80;99.90;;;;;;5053896;28;20415;-68
2024/01/03 11:26:16;;;;;;;2.63;1.20;;;11.00;99.90;;;;;;5054039;28;20414;-67
2024/01/03 11:28:48;;;;;;;1.40;0.90;;;11.30;99.90;;;;;;5070446;28;20234;-66
2024/01/03 11:31:34;;;;;;;1.00;0.90;;;12.80;99.90;;;;;;5043059;28;20193;-66
2024/01/03 11:34:00;;;;;;;2.73;0.77;;;13.30;99.90;;;;;;5060860;28;20447;-66
2024/01/03 11:36:44;;;;;;;1.10;0.97;;;12.90;99.90;;;;;;5061144;28;20442;-68
2024/01/03 11:39:36;;;;;;;1.23;0.70;;;13.50;99.90;;;;;;5064887;28;20204;-67
2024/01/03 11:42:05;;;;;;;3.70;1.20;;;15.10;99.90;;;;;;5069599;28;20430;-67
2024/01/03 11:44:31;;;;;;;1.90;1.03;;;15.00;99.90;;;;;;5073492;28;20423;-66
2024/01/03 11:46:58;;;;;;;1.77;1.00;;;13.50;99.90;;;;;;5055054;28;20962;-66
2024/01/03 11:49:24;;;;;;;3.27;1.73;;;12.70;99.90;;;;;;5068376;28;20181;-66
2024/01/03 11:51:49;;;;;;;1.87;0.63;;;11.90;99.90;;;;;;5073328;28;20473;-66
2024/01/03 11:54:15;;;;;;;1.67;1.40;;;11.90;99.90;;;;;;5073115;28;20172;-66
2024/01/03 11:56:40;;;;;;;2.47;1.50;;;11.80;99.90;;;;;;5072927;28;20295;-66
2024/01/03 11:59:06;;;;;;;1.50;1.17;;;11.50;99.90;;;;;;5073256;28;20538;-66
2024/01/03 12:01:32;;;;;;;2.60;0.80;;;11.40;99.90;;;;;;5073384;28;20210;-66
2024/01/03 12:04:11;;;;;;;1.20;1.00;;;11.50;99.90;;;;;;5073149;28;20250;-66
2024/01/03 12:06:37;;;;;;;3.20;1.37;;;11.40;99.90;;;;;;5090530;22;20558;-68
2024/01/03 12:09:03;;;;;;;2.43;1.00;;;11.20;99.90;;;;;;5066798;28;20432;-68
2024/01/03 12:11:30;;;;;;;5.37;1.07;;;11.20;99.90;;;;;;5057891;28;20198;-68
2024/01/03 12:13:56;;;;;;;1.47;0.90;;;11.20;99.90;;;;;;5049253;28;20854;-68
2024/01/03 12:16:21;;;;;;;4.97;1.37;;;11.20;99.90;;;;;;5062255;28;20424;-68
2024/01/03 12:18:48;;;;;;;1.90;1.03;;;11.20;99.90;;;;;;5044716;28;20763;-68
2024/01/03 12:21:14;;;;;;;1.03;0.90;;;11.20;99.90;;;;;;5034962;28;20173;-68
2024/01/03 12:23:51;;;;;;;1.00;0.80;;;11.00;99.90;;;;;;5034285;28;20905;-68
2024/01/03 12:26:16;;;;;;;1.17;1.03;;;10.90;99.90;;;;;;5033976;28;20201;-68
2024/01/03 12:28:42;;;;;;;2.90;1.10;;;10.70;99.90;;;;;;5039679;28;20524;-68
2024/01/03 12:31:17;;;;;;;1.10;1.00;;;10.70;99.90;;;;;;5052381;28;20284;-68
2024/01/03 12:33:43;;;;;;;1.90;0.80;;;10.70;99.90;;;;;;5036001;28;20699;-69
2024/01/03 12:36:08;;;;;;;0.83;0.70;;;10.60;99.90;;;;;;5042769;28;20444;-69
2024/01/03 12:38:34;;;;;;;1.43;0.70;;;10.40;99.90;;;;;;5015535;28;20190;-68
2024/01/03 12:40:59;;;;;;;9.90;1.40;;;10.40;99.90;;;;;;5033565;28;20170;-68
2024/01/03 12:43:25;;;;;;;1.60;0.80;;;10.40;99.90;;;;;;5052046;28;20186;-68
2024/01/03 12:45:50;;;;;;;5.40;0.90;;;10.50;99.90;;;;;;5053446;28;20177;-68
2024/01/03 12:48:18;;;;;;;1.20;0.80;;;10.70;99.90;;;;;;5054034;28;20198;-69
2024/01/03 12:50:46;;;;;;;1.70;0.93;;;11.50;99.90;;;;;;5045612;28;20743;-69
2024/01/03 12:53:12;;;;;;;2.03;0.90;;;12.60;99.90;;;;;;5016818;28;20417;-66